createdAt,value
2022-11-14T00:01:40.373Z,7.20
2022-11-14T00:04:29.716Z,7.20
2022-11-14T00:07:17.263Z,7.10
2022-11-14T00:10:09.553Z,7.00
2022-11-14T00:12:56.362Z,7.00
2022-11-14T00:15:42.765Z,7.00
2022-11-14T00:18:29.570Z,6.90
2022-11-14T00:21:17.391Z,6.80
2022-11-14T00:24:03.840Z,6.80
2022-11-14T00:26:50.555Z,6.80
2022-11-14T00:29:37.097Z,6.80
2022-11-14T00:32:23.497Z,6.80
2022-11-14T00:35:10.853Z,6.70
2022-11-14T00:37:59.009Z,6.70
2022-11-14T00:40:45.660Z,6.70
2022-11-14T00:43:32.301Z,6.70
2022-11-14T00:46:18.930Z,6.60
2022-11-14T00:49:05.506Z,6.60
2022-11-14T00:51:52.227Z,6.60
2022-11-14T00:54:40.173Z,6.60
2022-11-14T00:57:26.820Z,6.60
2022-11-14T01:00:15.746Z,6.60
2022-11-14T01:03:02.278Z,6.60
2022-11-14T01:05:51.015Z,6.60
2022-11-14T01:08:37.478Z,6.50
2022-11-14T01:11:25.865Z,6.50
2022-11-14T01:14:12.490Z,6.50
2022-11-14T01:16:59.000Z,6.50
2022-11-14T01:19:45.446Z,6.50
2022-11-14T01:22:32.686Z,6.40
2022-11-14T01:25:19.511Z,6.40
2022-11-14T01:28:12.665Z,6.30
2022-11-14T01:31:09.611Z,6.30
2022-11-14T01:33:56.411Z,6.20
2022-11-14T01:36:43.443Z,6.10
2022-11-14T01:39:30.270Z,6.10
2022-11-14T01:42:17.743Z,6.20
2022-11-14T01:45:38.260Z,6.20
2022-11-14T01:48:36.054Z,6.20
2022-11-14T01:51:28.456Z,6.30
2022-11-14T01:54:19.521Z,6.30
2022-11-14T01:57:08.281Z,6.40
2022-11-14T01:59:58.677Z,6.40
2022-11-14T02:02:45.510Z,6.40
2022-11-14T02:05:34.954Z,6.40
2022-11-14T02:08:22.514Z,6.40
2022-11-14T02:11:12.153Z,6.40
2022-11-14T02:14:00.218Z,6.40
2022-11-14T02:17:01.086Z,6.40
2022-11-14T02:20:02.148Z,6.40
2022-11-14T02:22:53.189Z,6.40
2022-11-14T02:25:40.667Z,6.40
2022-11-14T02:28:28.964Z,6.40
2022-11-14T02:31:16.640Z,6.30
2022-11-14T02:34:03.762Z,6.30
2022-11-14T02:36:50.105Z,6.30
2022-11-14T02:39:39.113Z,6.20
2022-11-14T02:42:26.316Z,6.20
2022-11-14T02:45:13.848Z,6.10
2022-11-14T02:48:00.559Z,6.10
2022-11-14T02:50:49.883Z,6.00
2022-11-14T02:53:36.668Z,6.00
2022-11-14T02:56:24.477Z,5.90
2022-11-14T02:59:11.159Z,5.90
2022-11-14T03:01:57.722Z,5.80
2022-11-14T03:04:44.788Z,5.80
2022-11-14T03:07:31.618Z,5.80
2022-11-14T03:10:19.334Z,5.70
2022-11-14T03:13:07.052Z,5.80
2022-11-14T03:15:53.757Z,5.70
2022-11-14T03:18:40.364Z,5.70
2022-11-14T03:21:26.939Z,5.70
2022-11-14T03:24:14.010Z,5.70
2022-11-14T03:27:00.644Z,5.70
2022-11-14T03:29:49.537Z,5.70
2022-11-14T03:32:36.323Z,5.70
2022-11-14T03:35:22.768Z,5.60
2022-11-14T03:38:09.407Z,5.60
2022-11-14T03:40:56.018Z,5.60
2022-11-14T03:43:42.810Z,5.50
2022-11-14T03:46:30.990Z,5.50
2022-11-14T03:49:17.780Z,5.40
2022-11-14T03:52:04.740Z,5.40
2022-11-14T03:54:51.223Z,5.40
2022-11-14T03:57:37.828Z,5.30
2022-11-14T04:00:24.606Z,5.30
2022-11-14T04:03:12.773Z,5.40
2022-11-14T04:05:59.983Z,5.40
2022-11-14T04:08:46.601Z,5.40
2022-11-14T04:11:33.598Z,5.40
2022-11-14T04:14:20.125Z,5.50
2022-11-14T04:17:06.554Z,5.50
2022-11-14T04:19:55.099Z,5.50
2022-11-14T04:22:42.236Z,5.50
2022-11-14T04:25:29.116Z,5.50
2022-11-14T04:28:16.292Z,5.60
2022-11-14T04:31:02.744Z,5.50
2022-11-14T04:33:49.568Z,5.50
2022-11-14T04:36:37.453Z,5.50
2022-11-14T04:39:24.683Z,5.50
2022-11-14T04:42:11.361Z,5.50
2022-11-14T04:44:57.831Z,5.40
2022-11-14T04:47:45.034Z,5.40
2022-11-14T04:50:31.840Z,5.40
2022-11-14T04:53:19.574Z,5.30
2022-11-14T04:56:06.836Z,5.30
2022-11-14T04:58:53.703Z,5.30
2022-11-14T05:01:40.165Z,5.30
2022-11-14T05:04:26.703Z,5.30
2022-11-14T05:07:13.440Z,5.30
2022-11-14T05:10:01.676Z,5.30
2022-11-14T05:12:49.250Z,5.30
2022-11-14T05:15:36.250Z,5.20
2022-11-14T05:18:22.662Z,5.20
2022-11-14T05:21:12.099Z,5.20
2022-11-14T05:23:58.636Z,5.20
2022-11-14T05:26:46.361Z,5.20
2022-11-14T05:29:33.263Z,5.20
2022-11-14T05:32:19.775Z,5.20
2022-11-14T05:35:08.298Z,5.20
2022-11-14T05:37:59.010Z,5.20
2022-11-14T05:40:46.684Z,5.20
2022-11-14T05:43:34.856Z,5.20
2022-11-14T05:46:21.404Z,5.10
2022-11-14T05:49:07.966Z,5.10
2022-11-14T05:51:54.474Z,5.00
2022-11-14T05:54:40.947Z,5.10
2022-11-14T05:57:27.467Z,5.00
2022-11-14T06:00:16.898Z,5.00
2022-11-14T06:03:05.017Z,5.10
2022-11-14T06:05:51.506Z,5.10
2022-11-14T06:08:39.291Z,5.10
2022-11-14T06:11:25.795Z,5.10
2022-11-14T06:14:12.376Z,5.10
2022-11-14T06:17:00.231Z,5.10
2022-11-14T06:19:47.067Z,5.10
2022-11-14T06:22:35.076Z,5.10
2022-11-14T06:25:22.517Z,5.10
2022-11-14T06:28:09.344Z,5.10
2022-11-14T06:30:59.317Z,5.10
2022-11-14T06:33:47.654Z,5.00
2022-11-14T06:36:34.063Z,5.00
2022-11-14T06:39:20.748Z,5.10
2022-11-14T06:42:07.808Z,5.10
2022-11-14T06:44:54.298Z,5.10
2022-11-14T06:47:40.697Z,5.10
2022-11-14T06:50:29.738Z,5.20
2022-11-14T06:53:16.657Z,5.20
2022-11-14T06:56:05.209Z,5.30
2022-11-14T06:58:52.036Z,5.30
2022-11-14T07:01:38.551Z,5.30
2022-11-14T07:04:25.768Z,5.40
2022-11-14T07:07:13.613Z,5.40
2022-11-14T07:10:00.593Z,5.40
2022-11-14T07:12:48.750Z,5.40
2022-11-14T07:15:35.663Z,5.50
2022-11-14T07:18:22.654Z,5.60
2022-11-14T07:21:09.575Z,5.60
2022-11-14T07:23:58.416Z,5.70
2022-11-14T07:26:46.492Z,5.70
2022-11-14T07:29:34.249Z,5.80
2022-11-14T07:32:20.819Z,5.90
2022-11-14T07:35:08.080Z,6.00
2022-11-14T07:37:54.816Z,6.10
2022-11-14T07:40:42.579Z,6.10
2022-11-14T07:43:30.060Z,6.20
2022-11-14T07:46:18.860Z,6.30
2022-11-14T07:49:05.799Z,6.40
2022-11-14T07:51:52.226Z,6.40
2022-11-14T07:54:39.486Z,6.50
2022-11-14T07:57:27.531Z,6.60
2022-11-14T08:00:17.100Z,6.70
2022-11-14T08:03:04.324Z,6.70
2022-11-14T08:05:51.164Z,6.90
2022-11-14T08:08:38.146Z,6.90
2022-11-14T08:11:38.819Z,7.10
2022-11-14T08:14:26.978Z,7.20
2022-11-14T08:17:13.564Z,7.30
2022-11-14T08:19:59.982Z,7.50
2022-11-14T08:22:46.533Z,7.60
2022-11-14T08:25:33.039Z,7.70
2022-11-14T08:28:19.526Z,7.80
2022-11-14T08:31:08.034Z,7.90
2022-11-14T08:33:54.718Z,8.00
2022-11-14T08:36:41.532Z,8.00
2022-11-14T08:39:28.064Z,8.20
2022-11-14T08:42:14.467Z,8.30
2022-11-14T08:45:01.008Z,8.40
2022-11-14T08:47:54.086Z,8.50
2022-11-14T08:50:41.038Z,8.60
2022-11-14T08:53:27.564Z,8.70
2022-11-14T08:56:14.296Z,8.90
2022-11-14T08:59:01.994Z,9.00
2022-11-14T09:01:48.388Z,9.10
2022-11-14T09:04:36.564Z,9.30
2022-11-14T09:07:23.585Z,9.40
2022-11-14T09:10:11.272Z,9.50
2022-11-14T09:12:58.479Z,9.60
2022-11-14T09:15:51.976Z,9.70
2022-11-14T09:18:38.484Z,9.80
2022-11-14T09:21:26.985Z,9.90
2022-11-14T09:24:13.624Z,10.00
2022-11-14T09:26:59.895Z,10.20
2022-11-14T09:29:46.961Z,10.30
2022-11-14T09:32:34.069Z,10.40
2022-11-14T09:35:20.583Z,10.50
2022-11-14T09:38:11.139Z,10.60
2022-11-14T09:41:06.156Z,10.70
2022-11-14T09:44:50.441Z,10.80
2022-11-14T09:47:42.249Z,10.80
2022-11-14T09:50:33.719Z,11.00
2022-11-14T09:53:31.416Z,11.10
2022-11-14T09:56:23.121Z,11.20
2022-11-14T09:59:11.899Z,11.30
2022-11-14T10:02:03.128Z,11.40
2022-11-14T10:04:57.024Z,11.50
2022-11-14T10:08:05.400Z,11.60
2022-11-14T10:10:55.987Z,11.70
2022-11-14T10:14:05.967Z,11.80
2022-11-14T10:17:05.322Z,11.90
2022-11-14T10:20:04.270Z,12.00
2022-11-14T10:23:21.213Z,12.10
2022-11-14T10:26:20.820Z,12.10
2022-11-14T10:29:42.076Z,12.20
2022-11-14T10:32:46.452Z,12.20
2022-11-14T10:35:37.463Z,12.30
2022-11-14T10:38:31.375Z,12.30
2022-11-14T10:41:41.795Z,12.50
2022-11-14T10:44:34.508Z,12.70
2022-11-14T10:47:24.188Z,12.90
2022-11-14T10:50:20.616Z,13.00
2022-11-14T10:53:21.044Z,13.10
2022-11-14T10:56:11.258Z,13.20
2022-11-14T10:58:59.225Z,13.40
2022-11-14T11:01:54.158Z,13.60
2022-11-14T11:04:42.108Z,13.70
2022-11-14T11:07:54.594Z,14.00
2022-11-14T11:11:02.172Z,14.10
2022-11-14T11:13:56.321Z,14.10
2022-11-14T11:16:44.535Z,14.10
2022-11-14T11:19:31.725Z,14.10
2022-11-14T11:22:27.377Z,14.10
2022-11-14T11:25:25.298Z,14.10
2022-11-14T11:28:14.963Z,14.10
2022-11-14T11:31:03.544Z,14.30
2022-11-14T11:33:51.349Z,14.40
2022-11-14T11:36:42.246Z,14.50
2022-11-14T11:39:31.470Z,14.60
2022-11-14T11:42:21.429Z,14.70
2022-11-14T11:45:17.428Z,14.90
2022-11-14T11:48:13.893Z,14.90
2022-11-14T11:51:03.871Z,15.00
2022-11-14T11:53:58.650Z,15.00
2022-11-14T11:56:46.485Z,15.00
2022-11-14T11:59:38.830Z,15.10
2022-11-14T12:02:27.596Z,15.20
2022-11-14T12:05:17.376Z,15.30
2022-11-14T12:08:09.715Z,15.40
2022-11-14T12:10:57.989Z,15.50
2022-11-14T12:14:10.028Z,15.50
2022-11-14T12:17:33.300Z,15.50
2022-11-14T12:20:49.138Z,15.50
2022-11-14T12:24:23.962Z,15.50
2022-11-14T12:27:25.538Z,15.60
2022-11-14T12:30:15.951Z,15.60
2022-11-14T12:33:08.475Z,15.70
2022-11-14T12:35:58.518Z,15.80
2022-11-14T12:38:48.924Z,15.80
2022-11-14T12:41:39.243Z,15.90
2022-11-14T12:44:37.437Z,15.90
2022-11-14T12:47:26.336Z,15.90
2022-11-14T12:50:41.360Z,15.80
2022-11-14T12:53:46.535Z,15.80
2022-11-14T12:56:59.977Z,15.70
2022-11-14T12:59:54.422Z,15.70
2022-11-14T13:03:09.296Z,15.70
2022-11-14T13:06:00.375Z,15.80
2022-11-14T13:09:19.372Z,15.80
2022-11-14T13:12:45.810Z,15.80
2022-11-14T13:15:51.911Z,15.80
2022-11-14T13:19:09.696Z,15.90
2022-11-14T13:22:37.808Z,15.90
2022-11-14T13:25:25.489Z,16.00
2022-11-14T13:28:49.081Z,16.10
2022-11-14T13:31:52.146Z,16.20
2022-11-14T13:34:46.235Z,16.20
2022-11-14T13:38:02.096Z,16.30
2022-11-14T13:40:57.407Z,16.40
2022-11-14T13:43:58.056Z,16.50
2022-11-14T13:47:05.152Z,16.60
2022-11-14T13:49:59.953Z,16.80
2022-11-14T13:52:49.115Z,16.90
2022-11-14T13:55:46.662Z,16.90
2022-11-14T13:58:54.569Z,16.90
2022-11-14T14:02:02.379Z,16.90
2022-11-14T14:04:58.616Z,17.00
2022-11-14T14:07:58.881Z,17.10
2022-11-14T14:10:58.249Z,17.30
2022-11-14T14:13:58.464Z,17.40
2022-11-14T14:16:53.796Z,17.40
2022-11-14T14:19:57.626Z,17.40
2022-11-14T14:22:53.884Z,17.40
2022-11-14T14:25:48.873Z,17.30
2022-11-14T14:28:46.825Z,17.20
2022-11-14T14:31:39.236Z,17.20
2022-11-14T14:34:30.192Z,17.20
2022-11-14T14:37:22.468Z,17.20
2022-11-14T14:40:23.421Z,17.30
2022-11-14T14:43:24.042Z,17.40
2022-11-14T14:46:11.311Z,17.40
2022-11-14T14:48:59.460Z,17.40
2022-11-14T14:51:47.324Z,17.40
2022-11-14T14:54:34.087Z,17.20
2022-11-14T14:57:23.339Z,17.10
2022-11-14T15:00:20.056Z,17.00
2022-11-14T15:03:06.983Z,16.80
2022-11-14T15:06:00.489Z,16.50
2022-11-14T15:08:48.460Z,16.00
2022-11-14T15:11:35.684Z,15.60
2022-11-14T15:14:24.377Z,15.10
2022-11-14T15:17:12.373Z,14.80
2022-11-14T15:19:59.099Z,14.50
2022-11-14T15:23:03.771Z,14.30
2022-11-14T15:26:02.972Z,14.10
2022-11-14T15:28:49.551Z,13.80
2022-11-14T15:31:37.870Z,13.70
2022-11-14T15:34:29.663Z,13.60
2022-11-14T15:37:23.454Z,13.50
2022-11-14T15:40:18.069Z,13.30
2022-11-14T15:43:39.490Z,13.10
2022-11-14T15:46:50.033Z,12.90
2022-11-14T15:49:37.292Z,12.80
2022-11-14T15:52:27.406Z,12.70
2022-11-14T15:55:17.042Z,12.50
2022-11-14T15:58:27.176Z,12.50
2022-11-14T16:01:17.813Z,12.50
2022-11-14T16:04:04.937Z,12.40
2022-11-14T16:06:51.702Z,12.30
2022-11-14T16:09:38.662Z,12.20
2022-11-14T16:12:25.157Z,12.00
2022-11-14T16:15:12.036Z,11.90
2022-11-14T16:17:59.896Z,11.80
2022-11-14T16:20:46.497Z,11.70
2022-11-14T16:23:33.069Z,11.70
2022-11-14T16:26:20.218Z,11.70
2022-11-14T16:29:07.501Z,11.60
2022-11-14T16:31:55.475Z,11.60
2022-11-14T16:34:43.653Z,11.50
2022-11-14T16:37:30.087Z,11.50
2022-11-14T16:40:19.370Z,11.40
2022-11-14T16:43:06.182Z,11.20
2022-11-14T16:45:52.445Z,11.20
2022-11-14T16:48:38.903Z,11.10
2022-11-14T16:51:48.491Z,11.10
2022-11-14T16:54:34.195Z,11.00
2022-11-14T16:57:20.811Z,11.00
2022-11-14T17:00:09.644Z,10.90
2022-11-14T17:02:56.830Z,10.70
2022-11-14T17:08:33.054Z,10.60
2022-11-14T17:11:20.062Z,10.60
2022-11-14T17:14:06.641Z,10.50
2022-11-14T17:16:53.566Z,10.40
2022-11-14T17:19:45.831Z,10.40
2022-11-14T17:22:32.582Z,10.30
2022-11-14T17:25:20.328Z,10.20
2022-11-14T17:28:07.007Z,10.20
2022-11-14T17:30:53.511Z,10.00
2022-11-14T17:33:39.961Z,9.90
2022-11-14T17:36:28.608Z,9.80
2022-11-14T17:39:16.229Z,9.70
2022-11-14T17:42:05.371Z,9.70
2022-11-14T17:44:51.844Z,9.70
2022-11-14T17:47:38.368Z,9.70
2022-11-14T17:50:25.319Z,9.70
2022-11-14T17:53:11.685Z,9.60
2022-11-14T17:55:58.400Z,9.60
2022-11-14T17:58:46.700Z,9.50
2022-11-14T18:01:33.873Z,9.40
2022-11-14T18:04:20.729Z,9.30
2022-11-14T18:07:07.984Z,9.20
2022-11-14T18:09:54.958Z,9.10
2022-11-14T18:12:41.968Z,9.00
2022-11-14T18:15:29.822Z,9.00
2022-11-14T18:18:18.359Z,9.00
2022-11-14T18:21:09.714Z,8.90
2022-11-14T18:23:57.911Z,8.90
2022-11-14T18:26:44.687Z,8.80
2022-11-14T18:29:31.173Z,8.80
2022-11-14T18:32:19.238Z,8.70
2022-11-14T18:35:07.385Z,8.70
2022-11-14T18:37:54.241Z,8.70
2022-11-14T18:40:44.478Z,8.60
2022-11-14T18:43:32.588Z,8.60
2022-11-14T18:46:21.688Z,8.50
2022-11-14T18:49:11.148Z,8.40
2022-11-14T18:51:58.364Z,8.30
2022-11-14T18:54:48.053Z,8.20
2022-11-14T18:57:34.653Z,8.10
2022-11-14T19:00:25.196Z,8.10
2022-11-14T19:03:20.145Z,8.00
2022-11-14T19:06:09.824Z,8.00
2022-11-14T19:08:57.765Z,7.90
2022-11-14T19:12:04.128Z,7.90
2022-11-14T19:14:52.889Z,8.00
2022-11-14T19:17:39.907Z,8.00
2022-11-14T19:20:26.616Z,8.10
2022-11-14T19:23:14.767Z,8.10
2022-11-14T19:26:01.842Z,8.10
2022-11-14T19:28:49.163Z,8.10
2022-11-14T19:31:36.018Z,8.10
2022-11-14T19:34:22.527Z,8.20
2022-11-14T19:37:08.942Z,8.20
2022-11-14T19:39:56.790Z,8.20
2022-11-14T19:42:43.298Z,8.20
2022-11-14T19:45:30.210Z,8.20
2022-11-14T19:48:16.615Z,8.10
2022-11-14T19:51:07.373Z,8.10
2022-11-14T19:53:55.254Z,8.00
2022-11-14T19:56:43.165Z,8.00
2022-11-14T19:59:29.889Z,8.00
2022-11-14T20:02:16.449Z,8.00
2022-11-14T20:05:02.924Z,8.00
2022-11-14T20:07:49.764Z,8.00
2022-11-14T20:10:47.648Z,8.00
2022-11-14T20:13:36.935Z,7.90
2022-11-14T20:16:25.366Z,7.90
2022-11-14T20:19:13.601Z,8.00
2022-11-14T20:22:00.065Z,8.00
2022-11-14T20:24:47.845Z,8.00
2022-11-14T20:27:34.804Z,7.90
2022-11-14T20:30:23.321Z,7.90
2022-11-14T20:33:10.721Z,7.80
2022-11-14T20:36:02.451Z,7.80
2022-11-14T20:38:49.778Z,7.80
2022-11-14T20:41:36.499Z,7.80
2022-11-14T20:44:23.678Z,7.80
2022-11-14T20:47:11.533Z,7.80
2022-11-14T20:50:00.352Z,7.80
2022-11-14T20:52:47.603Z,7.80
2022-11-14T20:55:34.906Z,7.80
2022-11-14T20:58:21.539Z,7.80
2022-11-14T21:01:08.396Z,7.70
2022-11-14T21:03:56.329Z,7.70
2022-11-14T21:06:43.066Z,7.60
2022-11-14T21:09:29.685Z,7.50
2022-11-14T21:12:16.769Z,7.40
2022-11-14T21:15:03.947Z,7.30
2022-11-14T21:17:50.584Z,7.20
2022-11-14T21:20:38.685Z,7.10
2022-11-14T21:23:25.517Z,7.10
2022-11-14T21:26:14.093Z,7.00
2022-11-14T21:29:02.896Z,6.90
2022-11-14T21:31:49.612Z,6.90
2022-11-14T21:34:36.091Z,6.80
2022-11-14T21:37:24.011Z,6.80
2022-11-14T21:40:11.790Z,6.70
2022-11-14T21:42:58.661Z,6.70
2022-11-14T21:45:45.839Z,6.60
2022-11-14T21:48:38.768Z,6.50
2022-11-14T21:51:29.632Z,6.40
2022-11-14T21:54:17.926Z,6.30
2022-11-14T21:57:09.785Z,6.20
2022-11-14T21:59:57.326Z,6.20
2022-11-14T22:03:01.092Z,6.10
2022-11-14T22:05:47.732Z,6.10
2022-11-14T22:08:34.168Z,6.00
2022-11-14T22:11:23.283Z,5.90
2022-11-14T22:14:10.067Z,5.90
2022-11-14T22:16:59.172Z,5.80
2022-11-14T22:19:46.096Z,5.90
2022-11-14T22:22:33.025Z,5.80
2022-11-14T22:25:19.967Z,5.80
2022-11-14T22:28:08.187Z,5.80
2022-11-14T22:31:05.772Z,5.80
2022-11-14T22:33:54.247Z,5.80
2022-11-14T22:36:40.775Z,5.70
2022-11-14T22:39:27.705Z,5.60
2022-11-14T22:42:14.172Z,5.60
2022-11-14T22:45:02.049Z,5.50
2022-11-14T22:47:49.064Z,5.40
2022-11-14T22:50:35.764Z,5.40
2022-11-14T22:53:22.344Z,5.40
2022-11-14T22:56:11.317Z,5.40
2022-11-14T22:58:59.522Z,5.40
2022-11-14T23:01:47.705Z,5.40
2022-11-14T23:04:34.520Z,5.40
2022-11-14T23:10:35.021Z,5.30
2022-11-14T23:13:21.895Z,5.40
2022-11-14T23:16:09.344Z,5.40
2022-11-14T23:18:59.186Z,5.40
2022-11-14T23:21:45.686Z,5.40
2022-11-14T23:24:32.070Z,5.30
2022-11-14T23:27:18.495Z,5.30
2022-11-14T23:30:06.070Z,5.40
2022-11-14T23:32:52.549Z,5.30
2022-11-14T23:35:42.411Z,5.30
2022-11-14T23:38:30.633Z,5.30
2022-11-14T23:41:18.669Z,5.30
2022-11-14T23:44:05.311Z,5.30
2022-11-14T23:46:51.791Z,5.20
2022-11-14T23:49:38.743Z,5.20
2022-11-14T23:52:26.853Z,5.10
2022-11-14T23:55:14.014Z,5.10
2022-11-14T23:58:01.152Z,5.00
